Wednesday, August 27, 2014
08:56 UTC
  |  Log In   |  Register Free
Airport Search:

De Kalb County Airport
(KGWB)

De Kalb County Airport Diagram
No Airport Diagram Available

FAA data valid effective July 24, 2014 until September 18, 2014 (unless otherwise noted).

 
 
 
 
 
 
 
 
 
 
 
 
 
 

Current Aviation Weather for De Kalb County Airport (KGWB)

The most recent METAR observation for KGWB was updated at: 1835 UTC
METAR Summary (Translated METAR)
KGWB
281835Z AUTO 28011G16KT 10SM BKN032 BKN041 BKN055 21/12 A2998 RMK AO2
KFWA
(20.6 nm SW from KGWB)
281754Z 32010KT 10SM FEW030 SCT039 BKN055 21/14 A2998 RMK AO2 SLP147 T02110139 10211 20178 51007
TAF Summary (Translated TAF)
KFWA
(20.6 nm SW from KGWB)
270536Z 2706/2806 VRB03KT P6SM SCT250 TEMPO 2708/2712 3SM BR SCT002 FM271400 03007KT P6SM SCT040 BKN100
  Airport Weather Conditions for KGWB

 Current Weather at GWB
70° F
Fair
Northwest winds at 3.5 mph
GWB NOAA Radar

Pressure: 30.10 in
Humidity: 88%
Wind: Northwest at 3.5 MPH (3 KT)
Dew Point: 66.2°F
Visibility: 10.00 mi


Airport Weather Forecast for KGWB

Translated METAR and TAF for KGWB
Translated METAR for KGWB (0850 UTC 27 August 2014)
found at http://aviationweather.gov/adds/metars/
 
METAR text: KGWB 270835Z AUTO 33003KT 5SM BR OVC005 21/19 A3010 RMK AO2
Conditions at: KGWB (AUBURN DEKALB C , IN, US) observed 0835 UTC 27 August 2014
Temperature: 21.0°C (70°F)
Dewpoint: 19.0°C (66°F) [RH = 88%]
Pressure (altimeter): 30.10 inches Hg (1019.4 mb)
Winds: from the NNW (330 degrees) at 3 MPH (3 knots; 1.6 m/s)
Visibility: 5 miles (8 km)
Ceiling: 500 feet AGL
Clouds: overcast cloud deck at 500 feet AGL
Weather: BR  (mist)
Translated TAF for KGWB

There is no translated TAF available for this airport

Find All Airport Services Find A Hotel Find A Rental Car Find A Golf Course Find A Restaurant $100 Hamburger



FBO's on the Field
FBO Company Facility Photos Services Transportation Aviation Fuel Prices: Prices include tax
Catering Weather Repair Courtesy Rental Type 100LL JetA JetA+ MOGAS 8087
 
Century Aviation

This FBO has not yet been rated
FS:Shell
Last Updated: Aug-20
Login to update fuel prices
SS:
Contact Century AviationMore FBO Information
 
Add another FBO Facility Photos Catering Weather Repair Courtesy Rental Type 100LL JetA JetA+ MOGAS 8087
Services Transportation Aviation Fuel Prices: Prices include tax


GlobalAir.com Airport Resource Center model-print
model-print
model-print
model-print